sensor_id;sensor_type;location;lat;lon;timestamp;P1;durP1;ratioP1;P2;durP2;ratioP2
73428;SDS011;61643;49.564;17.412;2023-04-27T00:00:44;11.75;;;4.32;;
73428;SDS011;61643;49.564;17.412;2023-04-27T00:03:10;12.05;;;4.13;;
73428;SDS011;61643;49.564;17.412;2023-04-27T00:05:36;7.47;;;3.35;;
73428;SDS011;61643;49.564;17.412;2023-04-27T00:08:04;8.73;;;3.92;;
73428;SDS011;61643;49.564;17.412;2023-04-27T00:10:30;11.55;;;4.45;;
73428;SDS011;61643;49.564;17.412;2023-04-27T00:12:56;9.13;;;3.47;;
73428;SDS011;61643;49.564;17.412;2023-04-27T00:15:23;7.40;;;3.22;;
73428;SDS011;61643;49.564;17.412;2023-04-27T00:17:49;8.65;;;3.50;;
73428;SDS011;61643;49.564;17.412;2023-04-27T00:20:15;5.25;;;2.35;;
73428;SDS011;61643;49.564;17.412;2023-04-27T00:22:40;5.75;;;2.42;;
73428;SDS011;61643;49.564;17.412;2023-04-27T00:25:07;5.47;;;2.22;;
73428;SDS011;61643;49.564;17.412;2023-04-27T00:27:33;5.03;;;2.50;;
73428;SDS011;61643;49.564;17.412;2023-04-27T00:29:59;5.03;;;2.30;;
73428;SDS011;61643;49.564;17.412;2023-04-27T00:32:25;4.95;;;2.47;;
73428;SDS011;61643;49.564;17.412;2023-04-27T00:34:51;4.35;;;2.50;;
73428;SDS011;61643;49.564;17.412;2023-04-27T00:37:17;6.47;;;2.72;;
73428;SDS011;61643;49.564;17.412;2023-04-27T00:39:44;5.93;;;2.40;;
73428;SDS011;61643;49.564;17.412;2023-04-27T00:42:10;5.55;;;2.40;;
73428;SDS011;61643;49.564;17.412;2023-04-27T00:44:39;5.43;;;2.78;;
73428;SDS011;61643;49.564;17.412;2023-04-27T00:47:05;5.30;;;2.42;;
73428;SDS011;61643;49.564;17.412;2023-04-27T00:49:32;4.03;;;2.10;;
73428;SDS011;61643;49.564;17.412;2023-04-27T00:51:58;4.20;;;1.92;;
73428;SDS011;61643;49.564;17.412;2023-04-27T00:54:24;4.60;;;2.20;;
73428;SDS011;61643;49.564;17.412;2023-04-27T00:56:51;5.03;;;2.50;;
73428;SDS011;61643;49.564;17.412;2023-04-27T00:59:18;4.88;;;2.05;;
73428;SDS011;61643;49.564;17.412;2023-04-27T01:01:47;3.60;;;2.00;;
73428;SDS011;61643;49.564;17.412;2023-04-27T01:04:14;2.95;;;1.85;;
73428;SDS011;61643;49.564;17.412;2023-04-27T01:06:42;3.67;;;2.08;;
73428;SDS011;61643;49.564;17.412;2023-04-27T01:09:08;3.58;;;2.03;;
73428;SDS011;61643;49.564;17.412;2023-04-27T01:11:35;3.67;;;1.98;;
73428;SDS011;61643;49.564;17.412;2023-04-27T01:14:04;3.60;;;1.70;;
73428;SDS011;61643;49.564;17.412;2023-04-27T01:16:34;5.30;;;2.15;;
73428;SDS011;61643;49.564;17.412;2023-04-27T01:19:00;4.20;;;1.85;;
73428;SDS011;61643;49.564;17.412;2023-04-27T01:21:26;3.53;;;2.08;;
73428;SDS011;61643;49.564;17.412;2023-04-27T01:23:52;3.88;;;1.63;;
73428;SDS011;61643;49.564;17.412;2023-04-27T01:26:19;5.55;;;1.77;;
73428;SDS011;61643;49.564;17.412;2023-04-27T01:28:45;5.18;;;2.00;;
73428;SDS011;61643;49.564;17.412;2023-04-27T01:31:11;3.50;;;1.75;;
73428;SDS011;61643;49.564;17.412;2023-04-27T01:33:38;2.63;;;1.85;;
73428;SDS011;61643;49.564;17.412;2023-04-27T01:36:04;3.28;;;1.67;;
73428;SDS011;61643;49.564;17.412;2023-04-27T01:38:33;3.42;;;1.90;;
73428;SDS011;61643;49.564;17.412;2023-04-27T01:41:02;2.53;;;1.80;;
73428;SDS011;61643;49.564;17.412;2023-04-27T01:45:56;4.38;;;1.90;;
73428;SDS011;61643;49.564;17.412;2023-04-27T01:48:29;3.55;;;1.52;;
73428;SDS011;61643;49.564;17.412;2023-04-27T01:50:55;5.00;;;1.52;;
73428;SDS011;61643;49.564;17.412;2023-04-27T01:53:21;5.82;;;2.05;;
73428;SDS011;61643;49.564;17.412;2023-04-27T01:55:47;6.30;;;2.13;;
73428;SDS011;61643;49.564;17.412;2023-04-27T01:58:13;7.30;;;2.33;;
73428;SDS011;61643;49.564;17.412;2023-04-27T02:00:39;3.58;;;1.77;;
73428;SDS011;61643;49.564;17.412;2023-04-27T02:03:05;4.95;;;1.85;;
73428;SDS011;61643;49.564;17.412;2023-04-27T02:05:31;6.50;;;1.88;;
73428;SDS011;61643;49.564;17.412;2023-04-27T02:07:57;8.25;;;1.98;;
73428;SDS011;61643;49.564;17.412;2023-04-27T02:10:23;4.35;;;1.83;;
73428;SDS011;61643;49.564;17.412;2023-04-27T02:12:49;3.55;;;1.90;;
73428;SDS011;61643;49.564;17.412;2023-04-27T02:15:15;2.30;;;1.70;;
73428;SDS011;61643;49.564;17.412;2023-04-27T02:17:41;6.03;;;2.20;;
73428;SDS011;61643;49.564;17.412;2023-04-27T02:20:08;5.45;;;2.13;;
73428;SDS011;61643;49.564;17.412;2023-04-27T02:22:39;3.47;;;1.80;;
73428;SDS011;61643;49.564;17.412;2023-04-27T02:25:06;5.47;;;2.08;;
73428;SDS011;61643;49.564;17.412;2023-04-27T02:27:33;4.78;;;2.25;;
73428;SDS011;61643;49.564;17.412;2023-04-27T02:30:08;4.70;;;1.90;;
73428;SDS011;61643;49.564;17.412;2023-04-27T02:32:36;6.88;;;2.10;;
73428;SDS011;61643;49.564;17.412;2023-04-27T02:35:02;5.53;;;2.22;;
73428;SDS011;61643;49.564;17.412;2023-04-27T02:37:29;3.72;;;1.90;;
73428;SDS011;61643;49.564;17.412;2023-04-27T02:39:55;2.95;;;2.00;;
73428;SDS011;61643;49.564;17.412;2023-04-27T02:42:21;5.78;;;2.00;;
73428;SDS011;61643;49.564;17.412;2023-04-27T02:44:47;6.15;;;1.98;;
73428;SDS011;61643;49.564;17.412;2023-04-27T02:47:13;5.85;;;2.20;;
73428;SDS011;61643;49.564;17.412;2023-04-27T02:49:39;5.22;;;2.28;;
73428;SDS011;61643;49.564;17.412;2023-04-27T02:52:05;5.35;;;2.25;;
73428;SDS011;61643;49.564;17.412;2023-04-27T02:54:32;4.15;;;2.00;;
73428;SDS011;61643;49.564;17.412;2023-04-27T02:56:59;4.28;;;2.15;;
73428;SDS011;61643;49.564;17.412;2023-04-27T02:59:25;4.78;;;1.75;;
73428;SDS011;61643;49.564;17.412;2023-04-27T03:01:51;4.72;;;2.10;;
73428;SDS011;61643;49.564;17.412;2023-04-27T03:04:17;4.93;;;1.75;;
73428;SDS011;61643;49.564;17.412;2023-04-27T03:06:43;3.90;;;2.10;;
73428;SDS011;61643;49.564;17.412;2023-04-27T03:09:09;4.68;;;2.03;;
73428;SDS011;61643;49.564;17.412;2023-04-27T03:11:35;5.13;;;2.50;;
73428;SDS011;61643;49.564;17.412;2023-04-27T03:14:02;5.72;;;2.30;;
73428;SDS011;61643;49.564;17.412;2023-04-27T03:16:30;10.25;;;2.70;;
73428;SDS011;61643;49.564;17.412;2023-04-27T03:23:48;5.00;;;2.70;;
73428;SDS011;61643;49.564;17.412;2023-04-27T03:26:14;6.07;;;2.60;;
73428;SDS011;61643;49.564;17.412;2023-04-27T03:28:40;5.10;;;2.42;;
73428;SDS011;61643;49.564;17.412;2023-04-27T03:31:10;5.88;;;2.40;;
73428;SDS011;61643;49.564;17.412;2023-04-27T03:33:38;8.60;;;4.28;;
73428;SDS011;61643;49.564;17.412;2023-04-27T03:36:04;4.72;;;3.00;;
73428;SDS011;61643;49.564;17.412;2023-04-27T03:38:31;3.85;;;2.45;;
73428;SDS011;61643;49.564;17.412;2023-04-27T03:40:57;3.50;;;2.20;;
73428;SDS011;61643;49.564;17.412;2023-04-27T03:43:24;6.78;;;2.50;;
73428;SDS011;61643;49.564;17.412;2023-04-27T03:45:51;2.95;;;1.88;;
73428;SDS011;61643;49.564;17.412;2023-04-27T03:48:17;6.03;;;2.22;;
73428;SDS011;61643;49.564;17.412;2023-04-27T03:50:44;5.20;;;2.25;;
73428;SDS011;61643;49.564;17.412;2023-04-27T03:53:11;6.90;;;1.98;;
73428;SDS011;61643;49.564;17.412;2023-04-27T03:55:41;5.10;;;2.60;;
73428;SDS011;61643;49.564;17.412;2023-04-27T03:58:08;4.95;;;2.45;;
73428;SDS011;61643;49.564;17.412;2023-04-27T04:00:38;5.32;;;2.40;;
73428;SDS011;61643;49.564;17.412;2023-04-27T04:03:04;9.70;;;2.50;;
73428;SDS011;61643;49.564;17.412;2023-04-27T04:05:31;4.00;;;2.00;;
73428;SDS011;61643;49.564;17.412;2023-04-27T04:07:57;3.03;;;1.77;;
73428;SDS011;61643;49.564;17.412;2023-04-27T04:10:23;5.95;;;2.10;;
73428;SDS011;61643;49.564;17.412;2023-04-27T04:12:50;2.83;;;1.83;;
73428;SDS011;61643;49.564;17.412;2023-04-27T04:15:16;3.78;;;2.25;;
73428;SDS011;61643;49.564;17.412;2023-04-27T04:17:43;7.75;;;2.42;;
73428;SDS011;61643;49.564;17.412;2023-04-27T04:20:10;8.80;;;2.22;;
73428;SDS011;61643;49.564;17.412;2023-04-27T04:22:36;4.53;;;2.15;;
73428;SDS011;61643;49.564;17.412;2023-04-27T04:25:03;4.22;;;1.73;;
73428;SDS011;61643;49.564;17.412;2023-04-27T04:27:29;6.13;;;2.17;;
73428;SDS011;61643;49.564;17.412;2023-04-27T04:29:56;6.07;;;2.08;;
73428;SDS011;61643;49.564;17.412;2023-04-27T04:32:27;6.60;;;1.92;;
73428;SDS011;61643;49.564;17.412;2023-04-27T04:34:56;4.45;;;1.88;;
73428;SDS011;61643;49.564;17.412;2023-04-27T04:37:23;4.05;;;2.30;;
73428;SDS011;61643;49.564;17.412;2023-04-27T04:39:49;4.05;;;2.22;;
73428;SDS011;61643;49.564;17.412;2023-04-27T04:42:15;6.95;;;2.40;;
73428;SDS011;61643;49.564;17.412;2023-04-27T04:44:41;3.92;;;2.10;;
73428;SDS011;61643;49.564;17.412;2023-04-27T04:47:07;4.32;;;2.22;;
73428;SDS011;61643;49.564;17.412;2023-04-27T04:49:37;3.85;;;2.28;;
73428;SDS011;61643;49.564;17.412;2023-04-27T04:52:03;3.92;;;2.22;;
73428;SDS011;61643;49.564;17.412;2023-04-27T04:54:29;4.82;;;2.00;;
73428;SDS011;61643;49.564;17.412;2023-04-27T04:56:55;6.55;;;2.30;;
73428;SDS011;61643;49.564;17.412;2023-04-27T04:59:23;3.20;;;1.95;;
73428;SDS011;61643;49.564;17.412;2023-04-27T05:01:49;4.85;;;2.40;;
73428;SDS011;61643;49.564;17.412;2023-04-27T05:04:15;6.25;;;2.70;;
73428;SDS011;61643;49.564;17.412;2023-04-27T05:06:43;7.32;;;2.25;;
73428;SDS011;61643;49.564;17.412;2023-04-27T05:09:08;2.83;;;2.20;;
73428;SDS011;61643;49.564;17.412;2023-04-27T05:11:35;4.07;;;2.30;;
73428;SDS011;61643;49.564;17.412;2023-04-27T05:14:01;2.63;;;2.10;;
73428;SDS011;61643;49.564;17.412;2023-04-27T05:16:27;7.43;;;2.45;;
73428;SDS011;61643;49.564;17.412;2023-04-27T05:18:53;7.78;;;2.60;;
73428;SDS011;61643;49.564;17.412;2023-04-27T05:21:19;3.40;;;2.13;;
73428;SDS011;61643;49.564;17.412;2023-04-27T05:23:46;4.03;;;2.08;;
73428;SDS011;61643;49.564;17.412;2023-04-27T05:26:13;6.55;;;2.45;;
73428;SDS011;61643;49.564;17.412;2023-04-27T05:28:41;4.60;;;2.60;;
73428;SDS011;61643;49.564;17.412;2023-04-27T05:31:07;4.80;;;2.83;;
73428;SDS011;61643;49.564;17.412;2023-04-27T05:33:33;4.82;;;2.53;;
73428;SDS011;61643;49.564;17.412;2023-04-27T05:35:59;4.97;;;2.53;;
73428;SDS011;61643;49.564;17.412;2023-04-27T05:38:25;5.78;;;2.40;;
73428;SDS011;61643;49.564;17.412;2023-04-27T05:41:00;4.35;;;2.65;;
73428;SDS011;61643;49.564;17.412;2023-04-27T05:43:26;4.82;;;3.00;;
73428;SDS011;61643;49.564;17.412;2023-04-27T05:45:52;7.43;;;3.28;;
73428;SDS011;61643;49.564;17.412;2023-04-27T05:48:18;6.97;;;3.13;;
73428;SDS011;61643;49.564;17.412;2023-04-27T05:50:44;7.18;;;3.47;;
73428;SDS011;61643;49.564;17.412;2023-04-27T05:53:10;7.97;;;3.40;;
73428;SDS011;61643;49.564;17.412;2023-04-27T05:55:36;6.10;;;3.25;;
73428;SDS011;61643;49.564;17.412;2023-04-27T05:58:03;7.53;;;3.50;;
73428;SDS011;61643;49.564;17.412;2023-04-27T06:00:29;7.38;;;3.00;;
73428;SDS011;61643;49.564;17.412;2023-04-27T06:02:56;5.20;;;3.00;;
73428;SDS011;61643;49.564;17.412;2023-04-27T06:05:22;7.35;;;3.15;;
73428;SDS011;61643;49.564;17.412;2023-04-27T06:07:48;6.63;;;3.10;;
73428;SDS011;61643;49.564;17.412;2023-04-27T06:10:14;10.70;;;3.42;;
73428;SDS011;61643;49.564;17.412;2023-04-27T06:12:40;7.30;;;3.83;;
73428;SDS011;61643;49.564;17.412;2023-04-27T06:15:07;10.90;;;4.90;;
73428;SDS011;61643;49.564;17.412;2023-04-27T06:17:37;11.73;;;5.18;;
73428;SDS011;61643;49.564;17.412;2023-04-27T06:20:04;12.88;;;5.15;;
73428;SDS011;61643;49.564;17.412;2023-04-27T06:22:34;14.82;;;5.80;;
73428;SDS011;61643;49.564;17.412;2023-04-27T06:25:04;8.23;;;4.70;;
73428;SDS011;61643;49.564;17.412;2023-04-27T06:27:31;15.55;;;4.93;;
73428;SDS011;61643;49.564;17.412;2023-04-27T06:29:57;14.18;;;4.88;;
73428;SDS011;61643;49.564;17.412;2023-04-27T06:32:23;9.43;;;4.60;;
73428;SDS011;61643;49.564;17.412;2023-04-27T06:34:50;12.43;;;4.80;;
73428;SDS011;61643;49.564;17.412;2023-04-27T06:37:16;9.98;;;4.85;;
73428;SDS011;61643;49.564;17.412;2023-04-27T06:39:42;12.40;;;5.55;;
73428;SDS011;61643;49.564;17.412;2023-04-27T06:42:09;11.23;;;4.90;;
73428;SDS011;61643;49.564;17.412;2023-04-27T06:44:35;9.80;;;4.57;;
73428;SDS011;61643;49.564;17.412;2023-04-27T06:47:01;11.20;;;4.75;;
73428;SDS011;61643;49.564;17.412;2023-04-27T06:49:27;8.80;;;4.78;;
73428;SDS011;61643;49.564;17.412;2023-04-27T06:51:53;11.52;;;4.85;;
73428;SDS011;61643;49.564;17.412;2023-04-27T06:54:20;9.75;;;4.47;;
73428;SDS011;61643;49.564;17.412;2023-04-27T06:56:46;9.40;;;4.10;;
73428;SDS011;61643;49.564;17.412;2023-04-27T06:59:12;9.65;;;3.58;;
73428;SDS011;61643;49.564;17.412;2023-04-27T07:01:38;10.48;;;4.20;;
73428;SDS011;61643;49.564;17.412;2023-04-27T07:04:04;6.28;;;3.42;;
73428;SDS011;61643;49.564;17.412;2023-04-27T07:06:31;7.05;;;3.60;;
73428;SDS011;61643;49.564;17.412;2023-04-27T07:08:57;7.82;;;4.00;;
73428;SDS011;61643;49.564;17.412;2023-04-27T07:11:24;7.40;;;3.50;;
73428;SDS011;61643;49.564;17.412;2023-04-27T07:13:50;6.15;;;3.72;;
73428;SDS011;61643;49.564;17.412;2023-04-27T07:16:17;6.18;;;3.53;;
73428;SDS011;61643;49.564;17.412;2023-04-27T07:18:43;8.38;;;3.60;;
73428;SDS011;61643;49.564;17.412;2023-04-27T07:21:10;4.55;;;3.20;;
73428;SDS011;61643;49.564;17.412;2023-04-27T07:23:37;8.80;;;4.15;;
73428;SDS011;61643;49.564;17.412;2023-04-27T07:26:04;7.53;;;3.42;;
73428;SDS011;61643;49.564;17.412;2023-04-27T07:28:32;9.38;;;3.95;;
73428;SDS011;61643;49.564;17.412;2023-04-27T07:31:00;5.47;;;3.42;;
73428;SDS011;61643;49.564;17.412;2023-04-27T07:33:26;11.30;;;3.13;;
73428;SDS011;61643;49.564;17.412;2023-04-27T07:35:52;10.15;;;3.33;;
73428;SDS011;61643;49.564;17.412;2023-04-27T07:38:19;5.75;;;3.28;;
73428;SDS011;61643;49.564;17.412;2023-04-27T07:40:45;7.13;;;3.28;;
73428;SDS011;61643;49.564;17.412;2023-04-27T07:43:11;5.85;;;3.10;;
73428;SDS011;61643;49.564;17.412;2023-04-27T07:45:37;8.98;;;2.92;;
73428;SDS011;61643;49.564;17.412;2023-04-27T07:48:05;4.40;;;2.80;;
73428;SDS011;61643;49.564;17.412;2023-04-27T07:50:32;5.43;;;2.45;;
73428;SDS011;61643;49.564;17.412;2023-04-27T07:52:58;6.60;;;2.63;;
73428;SDS011;61643;49.564;17.412;2023-04-27T07:55:24;5.97;;;2.67;;
73428;SDS011;61643;49.564;17.412;2023-04-27T07:57:52;6.47;;;2.60;;
73428;SDS011;61643;49.564;17.412;2023-04-27T08:00:18;9.90;;;2.72;;
73428;SDS011;61643;49.564;17.412;2023-04-27T08:02:44;5.13;;;2.33;;
73428;SDS011;61643;49.564;17.412;2023-04-27T08:05:12;5.95;;;2.88;;
73428;SDS011;61643;49.564;17.412;2023-04-27T08:07:38;6.20;;;3.20;;
73428;SDS011;61643;49.564;17.412;2023-04-27T08:10:05;6.03;;;3.25;;
73428;SDS011;61643;49.564;17.412;2023-04-27T08:12:32;8.38;;;3.75;;
73428;SDS011;61643;49.564;17.412;2023-04-27T08:14:58;6.25;;;3.17;;
73428;SDS011;61643;49.564;17.412;2023-04-27T08:17:24;7.50;;;3.58;;
73428;SDS011;61643;49.564;17.412;2023-04-27T08:19:51;9.32;;;3.35;;
73428;SDS011;61643;49.564;17.412;2023-04-27T08:22:17;7.30;;;3.00;;
73428;SDS011;61643;49.564;17.412;2023-04-27T08:24:43;4.25;;;2.65;;
73428;SDS011;61643;49.564;17.412;2023-04-27T08:27:09;4.60;;;2.35;;
73428;SDS011;61643;49.564;17.412;2023-04-27T08:29:35;5.53;;;2.78;;
73428;SDS011;61643;49.564;17.412;2023-04-27T08:32:02;6.10;;;3.00;;
73428;SDS011;61643;49.564;17.412;2023-04-27T08:34:29;5.22;;;3.10;;
73428;SDS011;61643;49.564;17.412;2023-04-27T08:36:55;7.43;;;3.35;;
73428;SDS011;61643;49.564;17.412;2023-04-27T08:39:22;4.95;;;2.42;;
73428;SDS011;61643;49.564;17.412;2023-04-27T08:41:49;4.75;;;2.30;;
73428;SDS011;61643;49.564;17.412;2023-04-27T08:44:15;7.57;;;2.50;;
73428;SDS011;61643;49.564;17.412;2023-04-27T08:46:41;4.53;;;1.90;;
73428;SDS011;61643;49.564;17.412;2023-04-27T08:49:07;5.35;;;2.13;;
73428;SDS011;61643;49.564;17.412;2023-04-27T08:51:34;3.20;;;2.10;;
73428;SDS011;61643;49.564;17.412;2023-04-27T08:54:00;6.95;;;2.10;;
73428;SDS011;61643;49.564;17.412;2023-04-27T08:56:27;8.07;;;2.25;;
73428;SDS011;61643;49.564;17.412;2023-04-27T08:58:54;3.92;;;2.20;;
73428;SDS011;61643;49.564;17.412;2023-04-27T09:01:21;6.57;;;2.28;;
73428;SDS011;61643;49.564;17.412;2023-04-27T09:03:53;4.88;;;2.03;;
73428;SDS011;61643;49.564;17.412;2023-04-27T09:06:30;3.72;;;2.10;;
73428;SDS011;61643;49.564;17.412;2023-04-27T09:08:57;4.10;;;2.08;;
73428;SDS011;61643;49.564;17.412;2023-04-27T09:11:31;4.82;;;2.28;;
73428;SDS011;61643;49.564;17.412;2023-04-27T09:14:00;5.55;;;2.60;;
73428;SDS011;61643;49.564;17.412;2023-04-27T09:16:56;3.97;;;2.13;;
73428;SDS011;61643;49.564;17.412;2023-04-27T09:19:24;3.50;;;2.10;;
73428;SDS011;61643;49.564;17.412;2023-04-27T09:22:01;2.92;;;1.83;;
73428;SDS011;61643;49.564;17.412;2023-04-27T09:24:35;5.78;;;2.42;;
73428;SDS011;61643;49.564;17.412;2023-04-27T09:27:02;4.40;;;2.10;;
73428;SDS011;61643;49.564;17.412;2023-04-27T09:29:33;5.22;;;2.35;;
73428;SDS011;61643;49.564;17.412;2023-04-27T09:32:12;5.20;;;2.10;;
73428;SDS011;61643;49.564;17.412;2023-04-27T09:34:43;4.50;;;2.05;;
73428;SDS011;61643;49.564;17.412;2023-04-27T09:37:09;7.15;;;2.92;;
73428;SDS011;61643;49.564;17.412;2023-04-27T09:39:36;6.72;;;2.47;;
73428;SDS011;61643;49.564;17.412;2023-04-27T09:42:02;5.03;;;2.53;;
73428;SDS011;61643;49.564;17.412;2023-04-27T09:44:31;5.35;;;2.35;;
73428;SDS011;61643;49.564;17.412;2023-04-27T09:46:58;5.88;;;2.58;;
73428;SDS011;61643;49.564;17.412;2023-04-27T09:49:26;4.18;;;2.30;;
73428;SDS011;61643;49.564;17.412;2023-04-27T09:51:54;3.55;;;2.40;;
73428;SDS011;61643;49.564;17.412;2023-04-27T09:54:21;7.72;;;2.25;;
73428;SDS011;61643;49.564;17.412;2023-04-27T10:02:44;4.63;;;2.35;;
73428;SDS011;61643;49.564;17.412;2023-04-27T10:08:35;3.70;;;2.08;;
73428;SDS011;61643;49.564;17.412;2023-04-27T10:11:15;3.80;;;2.10;;
73428;SDS011;61643;49.564;17.412;2023-04-27T10:13:50;4.03;;;2.40;;
73428;SDS011;61643;49.564;17.412;2023-04-27T10:16:18;3.30;;;2.08;;
73428;SDS011;61643;49.564;17.412;2023-04-27T10:18:51;5.28;;;2.45;;
73428;SDS011;61643;49.564;17.412;2023-04-27T10:21:19;3.90;;;2.10;;
73428;SDS011;61643;49.564;17.412;2023-04-27T10:23:46;4.95;;;2.10;;
73428;SDS011;61643;49.564;17.412;2023-04-27T10:26:24;5.55;;;2.60;;
73428;SDS011;61643;49.564;17.412;2023-04-27T10:28:55;4.75;;;2.63;;
73428;SDS011;61643;49.564;17.412;2023-04-27T10:31:28;4.65;;;2.28;;
73428;SDS011;61643;49.564;17.412;2023-04-27T10:34:04;4.50;;;2.55;;
73428;SDS011;61643;49.564;17.412;2023-04-27T10:36:40;2.95;;;1.85;;
73428;SDS011;61643;49.564;17.412;2023-04-27T10:39:13;7.57;;;2.20;;
73428;SDS011;61643;49.564;17.412;2023-04-27T10:41:49;3.72;;;2.00;;
73428;SDS011;61643;49.564;17.412;2023-04-27T10:44:24;5.65;;;2.40;;
73428;SDS011;61643;49.564;17.412;2023-04-27T10:46:56;7.55;;;2.33;;
73428;SDS011;61643;49.564;17.412;2023-04-27T10:49:26;4.25;;;2.00;;
73428;SDS011;61643;49.564;17.412;2023-04-27T10:51:53;3.33;;;2.03;;
73428;SDS011;61643;49.564;17.412;2023-04-27T10:54:24;4.18;;;2.05;;
73428;SDS011;61643;49.564;17.412;2023-04-27T10:56:51;5.47;;;1.90;;
73428;SDS011;61643;49.564;17.412;2023-04-27T10:59:17;4.82;;;2.10;;
73428;SDS011;61643;49.564;17.412;2023-04-27T11:01:46;6.25;;;2.05;;
73428;SDS011;61643;49.564;17.412;2023-04-27T11:04:14;4.93;;;1.92;;
73428;SDS011;61643;49.564;17.412;2023-04-27T11:06:42;3.55;;;1.92;;
73428;SDS011;61643;49.564;17.412;2023-04-27T11:09:12;6.22;;;2.25;;
73428;SDS011;61643;49.564;17.412;2023-04-27T11:11:42;3.78;;;1.95;;
73428;SDS011;61643;49.564;17.412;2023-04-27T11:14:12;3.63;;;2.13;;
73428;SDS011;61643;49.564;17.412;2023-04-27T11:16:44;3.13;;;1.98;;
73428;SDS011;61643;49.564;17.412;2023-04-27T11:19:11;2.25;;;1.80;;
73428;SDS011;61643;49.564;17.412;2023-04-27T11:21:37;4.55;;;1.95;;
73428;SDS011;61643;49.564;17.412;2023-04-27T11:24:04;4.65;;;1.95;;
73428;SDS011;61643;49.564;17.412;2023-04-27T11:26:31;4.03;;;1.90;;
73428;SDS011;61643;49.564;17.412;2023-04-27T11:28:58;3.08;;;1.83;;
73428;SDS011;61643;49.564;17.412;2023-04-27T11:31:25;4.22;;;1.90;;
73428;SDS011;61643;49.564;17.412;2023-04-27T11:33:52;3.75;;;1.90;;
73428;SDS011;61643;49.564;17.412;2023-04-27T11:36:20;4.45;;;2.20;;
73428;SDS011;61643;49.564;17.412;2023-04-27T11:38:48;4.15;;;1.83;;
73428;SDS011;61643;49.564;17.412;2023-04-27T11:41:14;6.13;;;2.00;;
73428;SDS011;61643;49.564;17.412;2023-04-27T11:43:41;3.75;;;2.20;;
73428;SDS011;61643;49.564;17.412;2023-04-27T11:46:08;3.33;;;1.92;;
73428;SDS011;61643;49.564;17.412;2023-04-27T11:48:37;5.63;;;2.00;;
73428;SDS011;61643;49.564;17.412;2023-04-27T11:51:04;4.03;;;2.17;;
73428;SDS011;61643;49.564;17.412;2023-04-27T11:53:32;3.08;;;1.92;;
73428;SDS011;61643;49.564;17.412;2023-04-27T11:56:00;5.18;;;2.00;;
73428;SDS011;61643;49.564;17.412;2023-04-27T11:58:33;4.25;;;2.00;;
73428;SDS011;61643;49.564;17.412;2023-04-27T12:01:01;5.00;;;1.77;;
73428;SDS011;61643;49.564;17.412;2023-04-27T12:03:28;3.33;;;1.65;;
73428;SDS011;61643;49.564;17.412;2023-04-27T12:05:55;4.18;;;2.00;;
73428;SDS011;61643;49.564;17.412;2023-04-27T12:08:21;6.88;;;2.38;;
73428;SDS011;61643;49.564;17.412;2023-04-27T12:10:48;3.88;;;1.90;;
73428;SDS011;61643;49.564;17.412;2023-04-27T12:13:14;5.50;;;1.90;;
73428;SDS011;61643;49.564;17.412;2023-04-27T12:15:40;5.28;;;1.92;;
73428;SDS011;61643;49.564;17.412;2023-04-27T12:18:07;4.65;;;2.22;;
73428;SDS011;61643;49.564;17.412;2023-04-27T12:20:33;4.55;;;2.20;;
73428;SDS011;61643;49.564;17.412;2023-04-27T12:22:59;2.63;;;1.77;;
73428;SDS011;61643;49.564;17.412;2023-04-27T12:25:26;4.15;;;1.98;;
73428;SDS011;61643;49.564;17.412;2023-04-27T12:27:52;2.72;;;2.00;;
73428;SDS011;61643;49.564;17.412;2023-04-27T12:30:18;2.55;;;1.77;;
73428;SDS011;61643;49.564;17.412;2023-04-27T12:32:44;5.28;;;2.00;;
73428;SDS011;61643;49.564;17.412;2023-04-27T12:35:11;3.42;;;1.90;;
73428;SDS011;61643;49.564;17.412;2023-04-27T12:37:37;4.57;;;2.10;;
73428;SDS011;61643;49.564;17.412;2023-04-27T12:40:04;2.75;;;2.10;;
73428;SDS011;61643;49.564;17.412;2023-04-27T12:42:31;4.03;;;2.33;;
73428;SDS011;61643;49.564;17.412;2023-04-27T12:44:57;4.78;;;1.90;;
73428;SDS011;61643;49.564;17.412;2023-04-27T12:47:23;2.83;;;1.83;;
73428;SDS011;61643;49.564;17.412;2023-04-27T12:49:49;4.40;;;1.83;;
73428;SDS011;61643;49.564;17.412;2023-04-27T12:52:16;4.75;;;2.10;;
73428;SDS011;61643;49.564;17.412;2023-04-27T12:54:42;3.95;;;2.20;;
73428;SDS011;61643;49.564;17.412;2023-04-27T12:57:07;3.72;;;1.80;;
73428;SDS011;61643;49.564;17.412;2023-04-27T12:59:34;4.20;;;2.25;;
73428;SDS011;61643;49.564;17.412;2023-04-27T13:02:00;3.20;;;2.33;;
73428;SDS011;61643;49.564;17.412;2023-04-27T13:04:27;5.95;;;1.92;;
73428;SDS011;61643;49.564;17.412;2023-04-27T13:06:55;4.50;;;2.50;;
73428;SDS011;61643;49.564;17.412;2023-04-27T13:09:25;3.97;;;2.25;;
73428;SDS011;61643;49.564;17.412;2023-04-27T13:11:52;4.75;;;2.30;;
73428;SDS011;61643;49.564;17.412;2023-04-27T13:14:18;4.95;;;2.08;;
73428;SDS011;61643;49.564;17.412;2023-04-27T13:16:45;3.72;;;2.38;;
73428;SDS011;61643;49.564;17.412;2023-04-27T13:19:12;4.90;;;2.22;;
73428;SDS011;61643;49.564;17.412;2023-04-27T13:21:38;4.75;;;2.00;;
73428;SDS011;61643;49.564;17.412;2023-04-27T13:24:04;4.43;;;2.10;;
73428;SDS011;61643;49.564;17.412;2023-04-27T13:26:31;4.80;;;2.20;;
73428;SDS011;61643;49.564;17.412;2023-04-27T13:28:56;5.55;;;2.30;;
73428;SDS011;61643;49.564;17.412;2023-04-27T13:31:23;2.97;;;2.22;;
73428;SDS011;61643;49.564;17.412;2023-04-27T13:33:49;4.72;;;2.40;;
73428;SDS011;61643;49.564;17.412;2023-04-27T13:36:15;3.88;;;2.33;;
73428;SDS011;61643;49.564;17.412;2023-04-27T13:38:41;3.80;;;2.42;;
73428;SDS011;61643;49.564;17.412;2023-04-27T13:41:07;4.35;;;2.00;;
73428;SDS011;61643;49.564;17.412;2023-04-27T13:43:33;6.43;;;2.33;;
73428;SDS011;61643;49.564;17.412;2023-04-27T13:45:59;5.25;;;2.38;;
73428;SDS011;61643;49.564;17.412;2023-04-27T13:48:27;2.60;;;2.25;;
73428;SDS011;61643;49.564;17.412;2023-04-27T13:50:53;4.40;;;2.65;;
73428;SDS011;61643;49.564;17.412;2023-04-27T13:53:22;4.45;;;2.35;;
73428;SDS011;61643;49.564;17.412;2023-04-27T13:55:55;3.28;;;2.25;;
73428;SDS011;61643;49.564;17.412;2023-04-27T13:58:22;4.05;;;2.47;;
73428;SDS011;61643;49.564;17.412;2023-04-27T14:00:49;5.80;;;2.10;;
73428;SDS011;61643;49.564;17.412;2023-04-27T14:03:17;4.45;;;2.25;;
73428;SDS011;61643;49.564;17.412;2023-04-27T14:05:43;2.78;;;2.25;;
73428;SDS011;61643;49.564;17.412;2023-04-27T14:08:09;4.72;;;2.50;;
73428;SDS011;61643;49.564;17.412;2023-04-27T14:10:36;7.03;;;2.60;;
73428;SDS011;61643;49.564;17.412;2023-04-27T14:13:03;4.43;;;2.28;;
73428;SDS011;61643;49.564;17.412;2023-04-27T14:15:30;2.67;;;2.22;;
73428;SDS011;61643;49.564;17.412;2023-04-27T14:17:58;4.40;;;2.20;;
73428;SDS011;61643;49.564;17.412;2023-04-27T14:20:24;6.60;;;2.53;;
73428;SDS011;61643;49.564;17.412;2023-04-27T14:25:18;4.13;;;2.30;;
73428;SDS011;61643;49.564;17.412;2023-04-27T14:27:44;4.00;;;2.20;;
73428;SDS011;61643;49.564;17.412;2023-04-27T14:30:10;12.70;;;5.47;;
73428;SDS011;61643;49.564;17.412;2023-04-27T14:32:37;6.57;;;3.10;;
73428;SDS011;61643;49.564;17.412;2023-04-27T14:35:03;7.65;;;3.30;;
73428;SDS011;61643;49.564;17.412;2023-04-27T14:37:29;12.05;;;4.75;;
73428;SDS011;61643;49.564;17.412;2023-04-27T14:39:55;15.73;;;6.38;;
73428;SDS011;61643;49.564;17.412;2023-04-27T14:42:21;11.75;;;3.67;;
73428;SDS011;61643;49.564;17.412;2023-04-27T14:44:47;23.55;;;8.00;;
73428;SDS011;61643;49.564;17.412;2023-04-27T14:47:13;8.93;;;3.95;;
73428;SDS011;61643;49.564;17.412;2023-04-27T14:49:39;29.20;;;9.70;;
73428;SDS011;61643;49.564;17.412;2023-04-27T14:52:05;24.90;;;8.73;;